createdAt,value
2024-02-23T00:03:40.846Z,79.31
2024-02-23T00:07:23.714Z,79.71
2024-02-23T00:11:07.297Z,78.77
2024-02-23T00:14:52.094Z,78.90
2024-02-23T00:18:34.951Z,79.33
2024-02-23T00:22:19.296Z,78.77
2024-02-23T00:26:02.301Z,77.08
2024-02-23T00:29:45.414Z,77.87
2024-02-23T00:33:43.697Z,77.94
2024-02-23T00:37:28.143Z,77.00
2024-02-23T00:41:11.545Z,76.25
2024-02-23T00:44:54.414Z,76.62
2024-02-23T00:48:37.475Z,76.85
2024-02-23T00:52:20.682Z,77.34
2024-02-23T00:56:05.258Z,77.67
2024-02-23T00:59:48.248Z,77.22
2024-02-23T01:03:31.258Z,77.45
2024-02-23T01:07:14.223Z,76.95
2024-02-23T01:10:57.281Z,78.17
2024-02-23T01:14:41.609Z,76.96
2024-02-23T01:18:24.610Z,76.55
2024-02-23T01:22:07.702Z,76.54
2024-02-23T01:25:50.667Z,75.52
2024-02-23T01:29:34.150Z,75.78
2024-02-23T01:33:18.545Z,74.59
2024-02-23T01:37:01.443Z,74.15
2024-02-23T01:40:44.286Z,73.58
2024-02-23T01:44:27.186Z,73.76
2024-02-23T01:48:10.166Z,73.98
2024-02-23T01:51:54.510Z,73.79
2024-02-23T01:55:37.442Z,73.67
2024-02-23T01:59:20.669Z,74.95
2024-02-23T02:03:03.820Z,75.03
2024-02-23T02:06:47.908Z,74.82
2024-02-23T02:10:32.466Z,75.43
2024-02-23T02:14:15.594Z,76.32
2024-02-23T02:17:58.642Z,75.50
2024-02-23T02:21:41.670Z,75.88
2024-02-23T02:25:24.548Z,74.46
2024-02-23T02:29:09.100Z,74.77
2024-02-23T02:32:52.148Z,75.21
2024-02-23T02:36:35.089Z,74.87
2024-02-23T02:40:18.568Z,73.94
2024-02-23T02:44:01.703Z,73.18
2024-02-23T02:47:46.022Z,73.15
2024-02-23T02:51:28.996Z,73.22
2024-02-23T02:55:12.033Z,74.41
2024-02-23T02:58:54.910Z,74.83
2024-02-23T03:02:37.915Z,75.74
2024-02-23T03:06:22.764Z,74.46
2024-02-23T03:10:06.627Z,73.83
2024-02-23T03:13:49.904Z,72.58
2024-02-23T03:17:35.059Z,71.86
2024-02-23T03:21:18.016Z,71.38
2024-02-23T03:25:09.052Z,72.70
2024-02-23T03:28:52.142Z,71.12
2024-02-23T03:32:39.112Z,71.35
2024-02-23T03:36:22.198Z,71.60
2024-02-23T03:40:07.879Z,71.54
2024-02-23T03:43:50.877Z,72.05
2024-02-23T03:47:34.154Z,71.85
2024-02-23T03:51:17.554Z,72.11
2024-02-23T03:55:00.453Z,73.79
2024-02-23T03:58:44.739Z,74.85
2024-02-23T04:02:27.666Z,74.70
2024-02-23T04:06:10.719Z,73.49
2024-02-23T04:09:56.046Z,74.48
2024-02-23T04:13:38.921Z,75.44
2024-02-23T04:17:23.191Z,74.75
2024-02-23T04:21:06.468Z,73.49
2024-02-23T04:24:49.388Z,72.73
2024-02-23T04:28:34.698Z,72.86
2024-02-23T04:32:17.679Z,73.52
2024-02-23T04:36:01.841Z,74.58
2024-02-23T04:39:45.949Z,75.45
2024-02-23T04:43:28.870Z,76.68
2024-02-23T04:47:11.807Z,77.79
2024-02-23T04:50:54.810Z,77.83
2024-02-23T04:54:39.072Z,78.10
2024-02-23T04:58:23.149Z,78.79
2024-02-23T05:02:06.421Z,79.70
2024-02-23T05:05:52.159Z,80.36
2024-02-23T05:09:36.166Z,81.42
2024-02-23T05:13:20.462Z,80.90
2024-02-23T05:17:04.875Z,81.30
2024-02-23T05:20:47.818Z,81.41
2024-02-23T05:24:30.667Z,82.16
2024-02-23T05:28:13.604Z,82.26
2024-02-23T05:31:57.909Z,82.08
2024-02-23T05:35:40.894Z,82.74
2024-02-23T05:39:23.805Z,82.95
2024-02-23T05:43:06.868Z,83.14
2024-02-23T05:46:49.860Z,82.25
2024-02-23T05:50:34.277Z,81.97
2024-02-23T05:54:17.273Z,81.10
2024-02-23T05:58:00.337Z,80.31
2024-02-23T06:01:43.326Z,80.37
2024-02-23T06:05:28.627Z,79.55
2024-02-23T06:09:14.237Z,78.57
2024-02-23T06:12:58.356Z,77.47
2024-02-23T06:16:43.278Z,78.18
2024-02-23T06:20:26.215Z,77.77
2024-02-23T06:24:10.216Z,78.35
2024-02-23T06:27:54.681Z,78.16
2024-02-23T06:31:37.589Z,77.51
2024-02-23T06:35:23.165Z,77.50
2024-02-23T06:39:06.148Z,76.61
2024-02-23T06:42:49.497Z,75.93
2024-02-23T06:46:33.944Z,75.26
2024-02-23T06:50:16.881Z,75.81
2024-02-23T06:53:59.959Z,75.24
2024-02-23T06:57:43.014Z,74.81
2024-02-23T07:01:25.937Z,75.26
2024-02-23T07:05:11.678Z,74.78
2024-02-23T07:08:55.829Z,73.73
2024-02-23T07:12:38.813Z,73.75
2024-02-23T07:16:21.720Z,73.95
2024-02-23T07:20:07.164Z,72.92
2024-02-23T07:23:51.619Z,72.39
2024-02-23T07:27:35.115Z,72.37
2024-02-23T07:31:18.044Z,71.46
2024-02-23T07:35:01.049Z,71.55
2024-02-23T07:38:44.928Z,71.37
2024-02-23T07:42:29.230Z,71.48
2024-02-23T07:46:12.145Z,70.80
2024-02-23T07:49:55.826Z,71.53
2024-02-23T07:53:39.335Z,71.30
2024-02-23T07:57:22.513Z,69.99
2024-02-23T08:01:06.859Z,70.94
2024-02-23T08:04:51.259Z,70.54
2024-02-23T08:08:36.229Z,69.60
2024-02-23T08:12:19.365Z,70.17
2024-02-23T08:16:02.294Z,70.58
2024-02-23T08:19:46.692Z,69.92
2024-02-23T08:23:29.886Z,68.63
2024-02-23T08:27:12.880Z,68.92
2024-02-23T08:30:55.763Z,69.01
2024-02-23T08:34:38.709Z,68.86
2024-02-23T08:38:23.180Z,69.04
2024-02-23T08:42:06.572Z,67.10
2024-02-23T08:45:49.734Z,71.36
2024-02-23T08:49:33.815Z,62.43
2024-02-23T08:53:16.981Z,62.45
2024-02-23T08:57:01.309Z,62.29
2024-02-23T09:00:44.435Z,62.23
2024-02-23T09:04:27.320Z,63.30
2024-02-23T09:08:10.235Z,63.61
2024-02-23T09:11:53.292Z,63.94
2024-02-23T09:15:37.821Z,63.74
2024-02-23T09:19:21.675Z,65.11
2024-02-23T09:23:04.744Z,65.24
2024-02-23T09:26:49.022Z,65.92
2024-02-23T09:30:32.049Z,65.43
2024-02-23T09:34:16.465Z,65.68
2024-02-23T09:37:59.573Z,66.04
2024-02-23T09:41:42.884Z,66.41
2024-02-23T09:45:26.683Z,66.02
2024-02-23T09:49:11.480Z,66.21
2024-02-23T09:52:56.183Z,65.38
2024-02-23T09:56:39.361Z,65.40
2024-02-23T10:00:22.523Z,66.16
2024-02-23T10:04:07.684Z,65.06
2024-02-23T10:07:55.328Z,65.34
2024-02-23T10:11:39.841Z,64.11
2024-02-23T10:15:22.824Z,63.58
2024-02-23T10:19:05.762Z,64.50
2024-02-23T10:22:48.768Z,64.16
2024-02-23T10:26:31.709Z,65.34
2024-02-23T10:30:16.657Z,66.09
2024-02-23T10:34:00.426Z,65.77
2024-02-23T10:37:45.045Z,66.09
2024-02-23T10:41:29.690Z,65.08
2024-02-23T10:45:15.511Z,64.33
2024-02-23T10:49:00.820Z,64.53
2024-02-23T10:52:44.491Z,64.95
2024-02-23T10:56:28.369Z,64.98
2024-02-23T11:00:12.465Z,65.29
2024-02-23T11:03:55.979Z,64.55
2024-02-23T11:07:41.724Z,63.99
2024-02-23T11:11:24.851Z,64.59
2024-02-23T11:15:08.406Z,64.79
2024-02-23T11:18:51.569Z,65.81
2024-02-23T11:22:38.954Z,66.72
2024-02-23T11:26:27.442Z,65.67
2024-02-23T11:30:12.963Z,66.22
2024-02-23T11:33:56.843Z,65.71
2024-02-23T11:37:50.298Z,65.29
2024-02-23T11:41:34.837Z,65.75
2024-02-23T11:45:17.785Z,65.30
2024-02-23T11:49:01.317Z,65.75
2024-02-23T11:52:44.279Z,64.84
2024-02-23T11:56:27.230Z,65.09
2024-02-23T12:00:12.557Z,65.01
2024-02-23T12:03:55.428Z,64.81
2024-02-23T12:07:38.548Z,64.91
2024-02-23T12:11:21.865Z,65.50
2024-02-23T12:15:05.275Z,65.18
2024-02-23T12:18:55.455Z,64.19
2024-02-23T12:22:38.342Z,64.88
2024-02-23T12:26:22.153Z,64.67
2024-02-23T12:30:05.864Z,65.97
2024-02-23T12:33:50.351Z,66.20
2024-02-23T12:37:37.112Z,66.34
2024-02-23T12:41:20.077Z,66.65
2024-02-23T12:45:03.100Z,64.42
2024-02-23T12:48:46.080Z,63.11
2024-02-23T12:52:30.520Z,61.67
2024-02-23T12:56:14.733Z,62.50
2024-02-23T12:59:59.586Z,62.36
2024-02-23T13:03:43.218Z,62.58
2024-02-23T13:07:27.783Z,62.24
2024-02-23T13:11:13.287Z,62.09
2024-02-23T13:14:56.251Z,67.24
2024-02-23T13:18:45.273Z,64.57
2024-02-23T13:22:29.582Z,73.06
2024-02-23T13:26:18.416Z,59.42
2024-02-23T13:30:04.476Z,58.36
2024-02-23T13:33:50.802Z,58.65
2024-02-23T13:37:40.249Z,59.67
2024-02-23T13:41:25.260Z,60.10
2024-02-23T13:45:15.603Z,60.71
2024-02-23T13:49:13.578Z,61.34
2024-02-23T13:52:57.037Z,61.47
2024-02-23T13:56:41.425Z,62.77
2024-02-23T14:00:24.342Z,62.56
2024-02-23T14:04:09.564Z,63.10
2024-02-23T14:07:52.505Z,59.19
2024-02-23T14:11:35.965Z,58.22
2024-02-23T14:15:20.329Z,59.04
2024-02-23T14:19:03.299Z,60.57
2024-02-23T14:22:46.217Z,60.19
2024-02-23T14:26:29.295Z,61.90
2024-02-23T14:30:12.806Z,62.18
2024-02-23T14:33:57.193Z,61.91
2024-02-23T14:37:40.200Z,62.98
2024-02-23T14:41:24.115Z,63.29
2024-02-23T14:45:08.862Z,63.76
2024-02-23T14:48:51.942Z,64.15
2024-02-23T14:52:36.276Z,64.63
2024-02-23T14:56:19.266Z,64.65
2024-02-23T15:00:02.392Z,63.60
2024-02-23T15:03:45.381Z,63.90
2024-02-23T15:07:29.492Z,64.55
2024-02-23T15:11:14.018Z,64.70
2024-02-23T15:14:56.961Z,64.36
2024-02-23T15:18:40.192Z,64.89
2024-02-23T15:22:23.282Z,65.21
2024-02-23T15:26:11.335Z,65.54
2024-02-23T15:29:56.815Z,65.31
2024-02-23T15:33:40.719Z,65.34
2024-02-23T15:37:23.851Z,64.81
2024-02-23T15:41:06.865Z,65.12
2024-02-23T15:44:50.212Z,65.51
2024-02-23T15:48:35.095Z,66.15
2024-02-23T15:52:18.250Z,65.52
2024-02-23T15:56:02.508Z,66.48
2024-02-23T15:59:47.291Z,66.10
2024-02-23T16:03:36.820Z,65.93
2024-02-23T16:07:19.862Z,66.46
2024-02-23T16:11:02.855Z,67.10
2024-02-23T16:14:45.950Z,66.67
2024-02-23T16:18:29.086Z,65.60
2024-02-23T16:22:13.437Z,65.75
2024-02-23T16:25:56.456Z,65.62
2024-02-23T16:29:39.606Z,66.39
2024-02-23T16:33:22.652Z,67.34
2024-02-23T16:37:06.056Z,68.02
2024-02-23T16:40:50.391Z,68.00
2024-02-23T16:44:33.319Z,67.62
2024-02-23T16:48:17.763Z,67.44
2024-02-23T16:52:00.763Z,67.64
2024-02-23T16:55:49.474Z,67.90
2024-02-23T16:59:34.129Z,68.43
2024-02-23T17:03:18.218Z,68.43
2024-02-23T17:07:02.772Z,68.66
2024-02-23T17:10:45.907Z,69.07
2024-02-23T17:14:29.287Z,69.67
2024-02-23T17:18:14.450Z,69.80
2024-02-23T17:21:57.619Z,70.21
2024-02-23T17:25:42.132Z,70.04
2024-02-23T17:29:27.410Z,73.26
2024-02-23T17:33:10.895Z,70.89
2024-02-23T17:36:55.411Z,70.93
2024-02-23T17:40:38.444Z,100.00
2024-02-23T17:44:22.861Z,67.39
2024-02-23T17:48:07.055Z,56.26
2024-02-23T17:51:50.355Z,55.59
2024-02-23T17:55:34.886Z,56.83
2024-02-23T17:59:18.128Z,59.71
2024-02-23T18:03:03.523Z,61.95
2024-02-23T18:06:48.544Z,64.79
2024-02-23T18:10:33.574Z,65.91
2024-02-23T18:14:18.142Z,66.92
2024-02-23T18:18:01.525Z,67.62
2024-02-23T18:21:44.682Z,68.71
2024-02-23T18:25:27.988Z,68.98
2024-02-23T18:29:11.604Z,69.54
2024-02-23T18:32:56.759Z,70.73
2024-02-23T18:36:40.000Z,70.98
2024-02-23T18:40:23.229Z,71.92
2024-02-23T18:44:06.717Z,71.99
2024-02-23T18:47:50.063Z,72.28
2024-02-23T18:51:34.682Z,72.86
2024-02-23T18:55:17.789Z,73.31
2024-02-23T18:59:00.820Z,73.48
2024-02-23T19:02:46.982Z,74.28
2024-02-23T19:06:30.674Z,74.61
2024-02-23T19:10:15.206Z,75.25
2024-02-23T19:13:58.342Z,75.00
2024-02-23T19:17:43.208Z,74.98
2024-02-23T19:21:26.376Z,75.21
2024-02-23T19:25:11.495Z,75.43
2024-02-23T19:28:56.537Z,75.96
2024-02-23T19:32:40.175Z,76.40
2024-02-23T19:36:23.552Z,77.64
2024-02-23T19:40:09.053Z,77.50
2024-02-23T19:43:52.215Z,78.31
2024-02-23T19:47:36.813Z,78.20
2024-02-23T19:51:19.950Z,77.66
2024-02-23T19:55:03.154Z,77.59
2024-02-23T19:58:48.698Z,77.87
2024-02-23T20:02:32.098Z,78.39
2024-02-23T20:06:17.334Z,78.51
2024-02-23T20:10:02.752Z,78.64
2024-02-23T20:13:47.754Z,78.45
2024-02-23T20:17:31.652Z,78.61
2024-02-23T20:21:17.192Z,79.13
2024-02-23T20:25:01.862Z,79.33
2024-02-23T20:28:45.533Z,78.71
2024-02-23T20:32:30.358Z,78.08
2024-02-23T20:36:17.851Z,77.54
2024-02-23T20:40:01.085Z,77.40
2024-02-23T20:43:45.442Z,77.08
2024-02-23T20:47:29.284Z,77.00
2024-02-23T20:51:12.332Z,76.69
2024-02-23T20:54:56.800Z,76.90
2024-02-23T20:58:40.701Z,77.22
2024-02-23T21:02:23.769Z,77.09
2024-02-23T21:06:10.564Z,76.65
2024-02-23T21:09:54.186Z,76.54
2024-02-23T21:13:38.745Z,76.73
2024-02-23T21:17:21.887Z,76.82
2024-02-23T21:21:05.232Z,76.79
2024-02-23T21:24:48.269Z,76.94
2024-02-23T21:28:31.455Z,77.78
2024-02-23T21:32:16.029Z,77.53
2024-02-23T21:35:59.296Z,77.73
2024-02-23T21:39:42.397Z,78.58
2024-02-23T21:43:25.501Z,78.08
2024-02-23T21:47:08.793Z,77.73
2024-02-23T21:50:53.872Z,77.25
2024-02-23T21:54:37.809Z,76.55
2024-02-23T21:58:20.983Z,76.89
2024-02-23T22:02:06.904Z,77.07
2024-02-23T22:05:50.243Z,76.80
2024-02-23T22:09:34.809Z,77.12
2024-02-23T22:13:18.039Z,76.86
2024-02-23T22:17:01.161Z,75.89
2024-02-23T22:20:44.315Z,75.24
2024-02-23T22:24:27.331Z,75.36
2024-02-23T22:28:11.888Z,74.91
2024-02-23T22:31:54.990Z,75.01
2024-02-23T22:35:38.093Z,75.06
2024-02-23T22:39:21.357Z,74.97
2024-02-23T22:43:04.731Z,75.09
2024-02-23T22:46:50.788Z,75.00
2024-02-23T22:50:34.133Z,74.90
2024-02-23T22:54:20.363Z,74.87
2024-02-23T22:58:03.339Z,74.68
2024-02-23T23:01:46.502Z,74.44
2024-02-23T23:05:31.339Z,74.56
2024-02-23T23:09:14.962Z,74.32
2024-02-23T23:12:57.976Z,74.31
2024-02-23T23:16:41.811Z,74.14
2024-02-23T23:20:25.817Z,74.01
2024-02-23T23:24:10.545Z,73.95
2024-02-23T23:27:53.635Z,74.35
2024-02-23T23:31:36.739Z,74.03
2024-02-23T23:35:20.002Z,74.19
2024-02-23T23:39:03.032Z,74.17
2024-02-23T23:42:47.494Z,73.99
2024-02-23T23:46:30.519Z,74.40
2024-02-23T23:50:13.840Z,74.73
2024-02-23T23:53:59.393Z,74.94
2024-02-23T23:57:43.181Z,75.35
